sensor_id;sensor_type;location;lat;lon;timestamp;temperature;humidity
610;DHT22;292;48.800;9.216;2023-05-07T00:02:26;18.70;65.40
610;DHT22;292;48.800;9.216;2023-05-07T00:04:53;18.70;65.40
610;DHT22;292;48.800;9.216;2023-05-07T00:07:21;18.70;65.60
610;DHT22;292;48.800;9.216;2023-05-07T00:09:50;18.70;66.00
610;DHT22;292;48.800;9.216;2023-05-07T00:12:20;18.60;66.20
610;DHT22;292;48.800;9.216;2023-05-07T00:14:47;18.60;66.00
610;DHT22;292;48.800;9.216;2023-05-07T00:17:14;18.60;66.00
610;DHT22;292;48.800;9.216;2023-05-07T00:19:42;18.50;66.00
610;DHT22;292;48.800;9.216;2023-05-07T00:22:09;18.50;66.00
610;DHT22;292;48.800;9.216;2023-05-07T00:24:37;18.50;66.30
610;DHT22;292;48.800;9.216;2023-05-07T00:27:07;18.50;66.40
610;DHT22;292;48.800;9.216;2023-05-07T00:29:35;18.40;66.60
610;DHT22;292;48.800;9.216;2023-05-07T00:32:05;18.40;66.70
610;DHT22;292;48.800;9.216;2023-05-07T00:34:32;18.40;66.70
610;DHT22;292;48.800;9.216;2023-05-07T00:37:00;18.30;66.70
610;DHT22;292;48.800;9.216;2023-05-07T00:39:30;18.30;66.90
610;DHT22;292;48.800;9.216;2023-05-07T00:42:00;18.20;67.00
610;DHT22;292;48.800;9.216;2023-05-07T00:44:32;18.10;67.20
610;DHT22;292;48.800;9.216;2023-05-07T00:47:02;18.10;67.50
610;DHT22;292;48.800;9.216;2023-05-07T00:49:37;18.00;67.50
610;DHT22;292;48.800;9.216;2023-05-07T00:52:06;18.00;67.70
610;DHT22;292;48.800;9.216;2023-05-07T00:54:34;18.00;67.90
610;DHT22;292;48.800;9.216;2023-05-07T00:57:02;18.00;68.20
610;DHT22;292;48.800;9.216;2023-05-07T00:59:32;18.00;68.30
610;DHT22;292;48.800;9.216;2023-05-07T01:01:59;17.90;68.50
610;DHT22;292;48.800;9.216;2023-05-07T01:04:29;17.90;68.60
610;DHT22;292;48.800;9.216;2023-05-07T01:07:03;17.90;68.70
610;DHT22;292;48.800;9.216;2023-05-07T01:09:32;17.90;68.90
610;DHT22;292;48.800;9.216;2023-05-07T01:12:01;17.90;69.00
610;DHT22;292;48.800;9.216;2023-05-07T01:14:28;17.90;68.90
610;DHT22;292;48.800;9.216;2023-05-07T01:16:58;17.90;69.00
610;DHT22;292;48.800;9.216;2023-05-07T01:19:25;17.90;69.20
610;DHT22;292;48.800;9.216;2023-05-07T01:21:59;17.90;69.20
610;DHT22;292;48.800;9.216;2023-05-07T01:24:30;17.90;69.50
610;DHT22;292;48.800;9.216;2023-05-07T01:26:58;17.90;69.60
610;DHT22;292;48.800;9.216;2023-05-07T01:29:24;17.90;69.60
610;DHT22;292;48.800;9.216;2023-05-07T01:31:52;17.90;69.50
610;DHT22;292;48.800;9.216;2023-05-07T01:34:22;17.80;69.50
610;DHT22;292;48.800;9.216;2023-05-07T01:36:51;17.80;69.30
610;DHT22;292;48.800;9.216;2023-05-07T01:39:19;17.80;69.50
610;DHT22;292;48.800;9.216;2023-05-07T01:41:49;17.80;69.50
610;DHT22;292;48.800;9.216;2023-05-07T01:44:17;17.70;69.60
610;DHT22;292;48.800;9.216;2023-05-07T01:46:45;17.70;69.60
610;DHT22;292;48.800;9.216;2023-05-07T01:49:13;17.70;69.60
610;DHT22;292;48.800;9.216;2023-05-07T01:51:41;17.60;69.80
610;DHT22;292;48.800;9.216;2023-05-07T01:54:10;17.60;70.00
610;DHT22;292;48.800;9.216;2023-05-07T01:56:37;17.60;70.20
610;DHT22;292;48.800;9.216;2023-05-07T01:59:06;17.60;70.20
610;DHT22;292;48.800;9.216;2023-05-07T02:01:34;17.60;70.20
610;DHT22;292;48.800;9.216;2023-05-07T02:04:01;17.50;70.20
610;DHT22;292;48.800;9.216;2023-05-07T02:06:28;17.50;70.30
610;DHT22;292;48.800;9.216;2023-05-07T02:08:56;17.50;70.20
610;DHT22;292;48.800;9.216;2023-05-07T02:11:23;17.40;70.30
610;DHT22;292;48.800;9.216;2023-05-07T02:13:50;17.40;70.30
610;DHT22;292;48.800;9.216;2023-05-07T02:16:20;17.40;70.30
610;DHT22;292;48.800;9.216;2023-05-07T02:18:47;17.40;70.50
610;DHT22;292;48.800;9.216;2023-05-07T02:21:14;17.40;70.60
610;DHT22;292;48.800;9.216;2023-05-07T02:23:42;17.40;70.60
610;DHT22;292;48.800;9.216;2023-05-07T02:26:13;17.40;70.90
610;DHT22;292;48.800;9.216;2023-05-07T02:28:41;17.40;70.90
610;DHT22;292;48.800;9.216;2023-05-07T02:31:09;17.30;71.10
610;DHT22;292;48.800;9.216;2023-05-07T02:33:38;17.40;71.30
610;DHT22;292;48.800;9.216;2023-05-07T02:36:07;17.30;71.60
610;DHT22;292;48.800;9.216;2023-05-07T02:38:34;17.30;71.60
610;DHT22;292;48.800;9.216;2023-05-07T02:41:02;17.40;71.90
610;DHT22;292;48.800;9.216;2023-05-07T02:43:29;17.40;72.10
610;DHT22;292;48.800;9.216;2023-05-07T02:46:03;17.40;72.20
610;DHT22;292;48.800;9.216;2023-05-07T02:48:31;17.40;72.10
610;DHT22;292;48.800;9.216;2023-05-07T02:51:03;17.30;72.10
610;DHT22;292;48.800;9.216;2023-05-07T02:53:31;17.30;71.90
610;DHT22;292;48.800;9.216;2023-05-07T02:56:00;17.30;71.80
610;DHT22;292;48.800;9.216;2023-05-07T02:58:27;17.30;71.80
610;DHT22;292;48.800;9.216;2023-05-07T03:00:55;17.20;71.90
610;DHT22;292;48.800;9.216;2023-05-07T03:03:22;17.20;72.20
610;DHT22;292;48.800;9.216;2023-05-07T03:05:50;17.20;72.60
610;DHT22;292;48.800;9.216;2023-05-07T03:08:19;17.20;72.90
610;DHT22;292;48.800;9.216;2023-05-07T03:10:47;17.20;73.20
610;DHT22;292;48.800;9.216;2023-05-07T03:13:14;17.30;73.40
610;DHT22;292;48.800;9.216;2023-05-07T03:15:43;17.30;73.50
610;DHT22;292;48.800;9.216;2023-05-07T03:18:10;17.20;73.80
610;DHT22;292;48.800;9.216;2023-05-07T03:20:38;17.20;73.80
610;DHT22;292;48.800;9.216;2023-05-07T03:23:05;17.20;73.40
610;DHT22;292;48.800;9.216;2023-05-07T03:25:34;17.20;73.20
610;DHT22;292;48.800;9.216;2023-05-07T03:28:02;17.10;73.10
610;DHT22;292;48.800;9.216;2023-05-07T03:30:29;17.10;73.20
610;DHT22;292;48.800;9.216;2023-05-07T03:32:56;17.10;73.20
610;DHT22;292;48.800;9.216;2023-05-07T03:35:24;17.10;73.10
610;DHT22;292;48.800;9.216;2023-05-07T03:37:52;17.00;72.90
610;DHT22;292;48.800;9.216;2023-05-07T03:40:19;17.00;72.90
610;DHT22;292;48.800;9.216;2023-05-07T03:42:50;16.90;72.90
610;DHT22;292;48.800;9.216;2023-05-07T03:45:17;16.90;73.20
610;DHT22;292;48.800;9.216;2023-05-07T03:47:45;16.90;73.40
610;DHT22;292;48.800;9.216;2023-05-07T03:50:12;16.80;73.40
610;DHT22;292;48.800;9.216;2023-05-07T03:52:41;16.80;73.50
610;DHT22;292;48.800;9.216;2023-05-07T03:55:08;16.80;73.80
610;DHT22;292;48.800;9.216;2023-05-07T03:57:35;16.80;73.90
610;DHT22;292;48.800;9.216;2023-05-07T04:00:09;16.80;74.10
610;DHT22;292;48.800;9.216;2023-05-07T04:02:36;16.80;74.20
610;DHT22;292;48.800;9.216;2023-05-07T04:05:04;16.70;74.10
610;DHT22;292;48.800;9.216;2023-05-07T04:07:31;16.70;73.90
610;DHT22;292;48.800;9.216;2023-05-07T04:09:58;16.70;73.90
610;DHT22;292;48.800;9.216;2023-05-07T04:12:26;16.60;73.90
610;DHT22;292;48.800;9.216;2023-05-07T04:14:53;16.60;73.90
610;DHT22;292;48.800;9.216;2023-05-07T04:17:26;16.60;73.90
610;DHT22;292;48.800;9.216;2023-05-07T04:19:53;16.60;74.10
610;DHT22;292;48.800;9.216;2023-05-07T04:22:20;16.50;74.10
610;DHT22;292;48.800;9.216;2023-05-07T04:24:48;16.50;74.20
610;DHT22;292;48.800;9.216;2023-05-07T04:27:15;16.50;74.20
610;DHT22;292;48.800;9.216;2023-05-07T04:29:42;16.50;74.50
610;DHT22;292;48.800;9.216;2023-05-07T04:32:13;16.50;74.50
610;DHT22;292;48.800;9.216;2023-05-07T04:34:41;16.40;74.50
610;DHT22;292;48.800;9.216;2023-05-07T04:37:08;16.40;74.70
610;DHT22;292;48.800;9.216;2023-05-07T04:39:38;16.40;74.50
610;DHT22;292;48.800;9.216;2023-05-07T04:42:08;16.30;74.70
610;DHT22;292;48.800;9.216;2023-05-07T04:44:36;16.30;74.80
610;DHT22;292;48.800;9.216;2023-05-07T04:47:04;16.30;75.10
610;DHT22;292;48.800;9.216;2023-05-07T04:49:31;16.30;75.10
610;DHT22;292;48.800;9.216;2023-05-07T04:52:02;16.30;75.10
610;DHT22;292;48.800;9.216;2023-05-07T04:54:29;16.30;75.10
610;DHT22;292;48.800;9.216;2023-05-07T04:56:56;16.30;75.10
610;DHT22;292;48.800;9.216;2023-05-07T04:59:24;16.20;75.10
610;DHT22;292;48.800;9.216;2023-05-07T05:01:51;16.20;75.20
610;DHT22;292;48.800;9.216;2023-05-07T05:04:18;16.20;75.20
610;DHT22;292;48.800;9.216;2023-05-07T05:06:45;16.20;75.40
610;DHT22;292;48.800;9.216;2023-05-07T05:09:13;16.20;75.40
610;DHT22;292;48.800;9.216;2023-05-07T05:11:41;16.20;75.40
610;DHT22;292;48.800;9.216;2023-05-07T05:14:08;16.20;75.50
610;DHT22;292;48.800;9.216;2023-05-07T05:16:36;16.20;75.50
610;DHT22;292;48.800;9.216;2023-05-07T05:19:04;16.20;75.50
610;DHT22;292;48.800;9.216;2023-05-07T05:21:33;16.20;75.50
610;DHT22;292;48.800;9.216;2023-05-07T05:24:00;16.20;75.70
610;DHT22;292;48.800;9.216;2023-05-07T05:26:29;16.20;75.70
610;DHT22;292;48.800;9.216;2023-05-07T05:28:57;16.30;75.70
610;DHT22;292;48.800;9.216;2023-05-07T05:31:24;16.20;75.40
610;DHT22;292;48.800;9.216;2023-05-07T05:33:51;16.30;75.70
610;DHT22;292;48.800;9.216;2023-05-07T05:36:19;16.30;75.70
610;DHT22;292;48.800;9.216;2023-05-07T05:38:47;16.30;75.70
610;DHT22;292;48.800;9.216;2023-05-07T05:41:15;16.30;75.70
610;DHT22;292;48.800;9.216;2023-05-07T05:43:44;16.30;75.40
610;DHT22;292;48.800;9.216;2023-05-07T05:46:11;16.30;75.10
610;DHT22;292;48.800;9.216;2023-05-07T05:48:38;16.30;75.10
610;DHT22;292;48.800;9.216;2023-05-07T05:51:07;16.40;75.10
610;DHT22;292;48.800;9.216;2023-05-07T05:53:34;16.40;75.10
610;DHT22;292;48.800;9.216;2023-05-07T05:56:03;16.40;75.10
610;DHT22;292;48.800;9.216;2023-05-07T05:58:33;16.50;75.10
610;DHT22;292;48.800;9.216;2023-05-07T06:01:05;16.50;75.10
610;DHT22;292;48.800;9.216;2023-05-07T06:03:32;16.50;75.10
610;DHT22;292;48.800;9.216;2023-05-07T06:06:00;16.60;75.00
610;DHT22;292;48.800;9.216;2023-05-07T06:08:29;16.60;74.80
610;DHT22;292;48.800;9.216;2023-05-07T06:10:57;16.60;74.70
610;DHT22;292;48.800;9.216;2023-05-07T06:13:25;16.70;74.50
610;DHT22;292;48.800;9.216;2023-05-07T06:15:53;16.70;74.50
610;DHT22;292;48.800;9.216;2023-05-07T06:18:22;16.80;74.50
610;DHT22;292;48.800;9.216;2023-05-07T06:20:51;16.80;74.40
610;DHT22;292;48.800;9.216;2023-05-07T06:23:18;16.80;74.40
610;DHT22;292;48.800;9.216;2023-05-07T06:25:48;16.90;74.20
610;DHT22;292;48.800;9.216;2023-05-07T06:28:19;17.00;73.90
610;DHT22;292;48.800;9.216;2023-05-07T06:30:46;17.00;73.80
610;DHT22;292;48.800;9.216;2023-05-07T06:33:15;17.00;73.80
610;DHT22;292;48.800;9.216;2023-05-07T06:35:45;17.10;73.70
610;DHT22;292;48.800;9.216;2023-05-07T06:38:15;17.10;73.50
610;DHT22;292;48.800;9.216;2023-05-07T06:40:42;17.20;73.50
610;DHT22;292;48.800;9.216;2023-05-07T06:43:10;17.20;73.40
610;DHT22;292;48.800;9.216;2023-05-07T06:45:37;17.30;73.20
610;DHT22;292;48.800;9.216;2023-05-07T06:48:05;17.30;73.10
610;DHT22;292;48.800;9.216;2023-05-07T06:50:35;17.40;72.90
610;DHT22;292;48.800;9.216;2023-05-07T06:53:04;17.50;72.60
610;DHT22;292;48.800;9.216;2023-05-07T06:55:35;17.60;72.40
610;DHT22;292;48.800;9.216;2023-05-07T06:58:06;17.60;72.20
610;DHT22;292;48.800;9.216;2023-05-07T07:00:34;17.70;72.10
610;DHT22;292;48.800;9.216;2023-05-07T07:03:02;17.70;71.90
610;DHT22;292;48.800;9.216;2023-05-07T07:05:30;17.80;71.60
610;DHT22;292;48.800;9.216;2023-05-07T07:07:58;17.90;71.30
610;DHT22;292;48.800;9.216;2023-05-07T07:10:28;18.00;71.10
610;DHT22;292;48.800;9.216;2023-05-07T07:12:55;18.00;70.90
610;DHT22;292;48.800;9.216;2023-05-07T07:15:23;18.10;70.60
610;DHT22;292;48.800;9.216;2023-05-07T07:17:50;18.20;70.20
610;DHT22;292;48.800;9.216;2023-05-07T07:20:18;18.30;69.90
610;DHT22;292;48.800;9.216;2023-05-07T07:22:45;18.40;69.60
610;DHT22;292;48.800;9.216;2023-05-07T07:25:12;18.50;69.20
610;DHT22;292;48.800;9.216;2023-05-07T07:27:41;18.60;68.90
610;DHT22;292;48.800;9.216;2023-05-07T07:30:09;18.70;68.50
610;DHT22;292;48.800;9.216;2023-05-07T07:32:37;18.80;68.00
610;DHT22;292;48.800;9.216;2023-05-07T07:35:06;18.90;67.30
610;DHT22;292;48.800;9.216;2023-05-07T07:37:33;19.00;66.90
610;DHT22;292;48.800;9.216;2023-05-07T07:40:01;19.10;66.40
610;DHT22;292;48.800;9.216;2023-05-07T07:42:28;19.30;65.70
610;DHT22;292;48.800;9.216;2023-05-07T07:45:00;19.40;65.40
610;DHT22;292;48.800;9.216;2023-05-07T07:47:28;19.50;65.00
610;DHT22;292;48.800;9.216;2023-05-07T07:49:57;19.60;64.90
610;DHT22;292;48.800;9.216;2023-05-07T07:52:25;19.70;64.90
610;DHT22;292;48.800;9.216;2023-05-07T07:54:53;19.80;64.60
610;DHT22;292;48.800;9.216;2023-05-07T07:57:23;19.80;64.30
610;DHT22;292;48.800;9.216;2023-05-07T07:59:50;19.90;64.10
610;DHT22;292;48.800;9.216;2023-05-07T08:02:21;20.00;63.60
610;DHT22;292;48.800;9.216;2023-05-07T08:04:48;20.00;63.40
610;DHT22;292;48.800;9.216;2023-05-07T08:07:18;20.10;63.10
610;DHT22;292;48.800;9.216;2023-05-07T08:09:48;20.20;63.10
610;DHT22;292;48.800;9.216;2023-05-07T08:12:15;20.30;63.10
610;DHT22;292;48.800;9.216;2023-05-07T08:14:42;20.40;63.00
610;DHT22;292;48.800;9.216;2023-05-07T08:17:11;20.40;62.80
610;DHT22;292;48.800;9.216;2023-05-07T08:19:44;20.50;62.50
610;DHT22;292;48.800;9.216;2023-05-07T08:22:11;20.60;62.30
610;DHT22;292;48.800;9.216;2023-05-07T08:24:39;20.70;61.80
610;DHT22;292;48.800;9.216;2023-05-07T08:27:06;20.80;61.40
610;DHT22;292;48.800;9.216;2023-05-07T08:29:34;20.90;61.20
610;DHT22;292;48.800;9.216;2023-05-07T08:32:01;20.90;61.10
610;DHT22;292;48.800;9.216;2023-05-07T08:34:28;21.00;61.00
610;DHT22;292;48.800;9.216;2023-05-07T08:36:58;21.10;60.40
610;DHT22;292;48.800;9.216;2023-05-07T08:39:25;21.10;59.80
610;DHT22;292;48.800;9.216;2023-05-07T08:42:03;21.20;59.40
610;DHT22;292;48.800;9.216;2023-05-07T08:44:34;21.30;59.00
610;DHT22;292;48.800;9.216;2023-05-07T08:47:02;21.40;58.60
610;DHT22;292;48.800;9.216;2023-05-07T08:49:30;21.40;58.60
610;DHT22;292;48.800;9.216;2023-05-07T08:52:12;21.50;58.40
610;DHT22;292;48.800;9.216;2023-05-07T08:54:40;21.60;58.20
610;DHT22;292;48.800;9.216;2023-05-07T08:57:07;21.70;58.10
610;DHT22;292;48.800;9.216;2023-05-07T08:59:37;21.70;58.00
610;DHT22;292;48.800;9.216;2023-05-07T09:02:09;21.80;57.80
610;DHT22;292;48.800;9.216;2023-05-07T09:04:38;21.90;57.40
610;DHT22;292;48.800;9.216;2023-05-07T09:07:07;22.10;57.40
610;DHT22;292;48.800;9.216;2023-05-07T09:09:37;22.20;57.40
610;DHT22;292;48.800;9.216;2023-05-07T09:12:05;22.40;57.00
610;DHT22;292;48.800;9.216;2023-05-07T09:14:33;22.50;56.60
610;DHT22;292;48.800;9.216;2023-05-07T09:17:01;22.60;56.10
610;DHT22;292;48.800;9.216;2023-05-07T09:19:29;22.70;56.00
610;DHT22;292;48.800;9.216;2023-05-07T09:22:00;22.70;55.70
610;DHT22;292;48.800;9.216;2023-05-07T09:24:28;22.80;55.70
610;DHT22;292;48.800;9.216;2023-05-07T09:27:02;22.90;55.40
610;DHT22;292;48.800;9.216;2023-05-07T09:29:30;23.00;54.90
610;DHT22;292;48.800;9.216;2023-05-07T09:32:01;23.20;54.60
610;DHT22;292;48.800;9.216;2023-05-07T09:34:29;23.30;54.20
610;DHT22;292;48.800;9.216;2023-05-07T09:36:58;23.40;53.80
610;DHT22;292;48.800;9.216;2023-05-07T09:39:39;23.40;53.60
610;DHT22;292;48.800;9.216;2023-05-07T09:42:09;23.50;53.20
610;DHT22;292;48.800;9.216;2023-05-07T09:44:37;23.50;53.20
610;DHT22;292;48.800;9.216;2023-05-07T09:47:05;23.60;52.80
610;DHT22;292;48.800;9.216;2023-05-07T09:49:35;23.70;52.50
610;DHT22;292;48.800;9.216;2023-05-07T09:52:04;23.70;52.40
610;DHT22;292;48.800;9.216;2023-05-07T09:54:35;23.80;52.20
610;DHT22;292;48.800;9.216;2023-05-07T09:57:10;23.90;52.10
610;DHT22;292;48.800;9.216;2023-05-07T09:59:37;24.00;52.00
610;DHT22;292;48.800;9.216;2023-05-07T10:02:05;24.10;51.40
610;DHT22;292;48.800;9.216;2023-05-07T10:04:32;24.10;51.30
610;DHT22;292;48.800;9.216;2023-05-07T10:07:00;24.20;50.80
610;DHT22;292;48.800;9.216;2023-05-07T10:09:31;24.30;50.20
610;DHT22;292;48.800;9.216;2023-05-07T10:11:58;24.30;50.20
610;DHT22;292;48.800;9.216;2023-05-07T10:14:28;24.40;50.00
610;DHT22;292;48.800;9.216;2023-05-07T10:16:57;24.40;50.00
610;DHT22;292;48.800;9.216;2023-05-07T10:19:25;24.50;50.10
610;DHT22;292;48.800;9.216;2023-05-07T10:21:59;24.60;50.00
610;DHT22;292;48.800;9.216;2023-05-07T10:24:32;24.60;49.60
610;DHT22;292;48.800;9.216;2023-05-07T10:27:02;24.70;49.00
610;DHT22;292;48.800;9.216;2023-05-07T10:29:42;24.80;48.80
610;DHT22;292;48.800;9.216;2023-05-07T10:32:30;24.90;48.60
610;DHT22;292;48.800;9.216;2023-05-07T10:35:03;24.90;48.00
610;DHT22;292;48.800;9.216;2023-05-07T10:37:32;25.00;47.70
610;DHT22;292;48.800;9.216;2023-05-07T10:40:01;25.10;47.40
610;DHT22;292;48.800;9.216;2023-05-07T10:42:28;25.10;47.30
610;DHT22;292;48.800;9.216;2023-05-07T10:45:11;25.20;47.20
610;DHT22;292;48.800;9.216;2023-05-07T10:48:11;25.30;46.40
610;DHT22;292;48.800;9.216;2023-05-07T10:50:43;25.40;46.40
610;DHT22;292;48.800;9.216;2023-05-07T10:53:23;25.60;46.60
610;DHT22;292;48.800;9.216;2023-05-07T10:56:25;25.70;46.40
610;DHT22;292;48.800;9.216;2023-05-07T10:59:30;25.80;46.10
610;DHT22;292;48.800;9.216;2023-05-07T11:01:59;25.80;45.60
610;DHT22;292;48.800;9.216;2023-05-07T11:04:34;25.80;45.40
610;DHT22;292;48.800;9.216;2023-05-07T11:07:27;25.90;45.00
610;DHT22;292;48.800;9.216;2023-05-07T11:10:04;25.90;44.60
610;DHT22;292;48.800;9.216;2023-05-07T11:12:54;25.90;44.90
610;DHT22;292;48.800;9.216;2023-05-07T11:15:42;26.00;44.80
610;DHT22;292;48.800;9.216;2023-05-07T11:18:13;26.10;45.20
610;DHT22;292;48.800;9.216;2023-05-07T11:20:51;26.20;45.20
610;DHT22;292;48.800;9.216;2023-05-07T11:23:57;26.30;44.90
610;DHT22;292;48.800;9.216;2023-05-07T11:26:28;26.30;45.00
610;DHT22;292;48.800;9.216;2023-05-07T11:28:58;26.40;45.20
610;DHT22;292;48.800;9.216;2023-05-07T11:31:37;26.40;44.90
610;DHT22;292;48.800;9.216;2023-05-07T11:34:06;26.50;44.90
610;DHT22;292;48.800;9.216;2023-05-07T11:36:36;26.50;44.40
610;DHT22;292;48.800;9.216;2023-05-07T11:39:27;26.60;44.00
610;DHT22;292;48.800;9.216;2023-05-07T11:41:56;26.50;43.60
610;DHT22;292;48.800;9.216;2023-05-07T11:44:24;26.50;43.60
610;DHT22;292;48.800;9.216;2023-05-07T11:46:53;26.50;43.40
610;DHT22;292;48.800;9.216;2023-05-07T11:49:25;26.40;43.60
610;DHT22;292;48.800;9.216;2023-05-07T11:51:53;26.40;43.40
610;DHT22;292;48.800;9.216;2023-05-07T11:54:22;26.30;43.40
610;DHT22;292;48.800;9.216;2023-05-07T11:56:49;26.30;43.30
610;DHT22;292;48.800;9.216;2023-05-07T11:59:19;26.20;43.30
610;DHT22;292;48.800;9.216;2023-05-07T12:01:57;26.20;43.30
610;DHT22;292;48.800;9.216;2023-05-07T12:04:31;26.10;43.30
610;DHT22;292;48.800;9.216;2023-05-07T12:06:58;26.00;43.30
610;DHT22;292;48.800;9.216;2023-05-07T12:09:26;26.00;43.30
610;DHT22;292;48.800;9.216;2023-05-07T12:11:55;25.90;43.20
610;DHT22;292;48.800;9.216;2023-05-07T12:14:30;25.80;43.30
610;DHT22;292;48.800;9.216;2023-05-07T12:16:59;25.70;43.60
610;DHT22;292;48.800;9.216;2023-05-07T12:19:31;25.70;44.40
610;DHT22;292;48.800;9.216;2023-05-07T12:22:10;25.60;46.10
610;DHT22;292;48.800;9.216;2023-05-07T12:24:44;25.50;47.20
610;DHT22;292;48.800;9.216;2023-05-07T12:27:12;25.40;48.10
610;DHT22;292;48.800;9.216;2023-05-07T12:29:43;25.30;48.80
610;DHT22;292;48.800;9.216;2023-05-07T12:32:13;25.20;49.30
610;DHT22;292;48.800;9.216;2023-05-07T12:34:43;25.10;49.60
610;DHT22;292;48.800;9.216;2023-05-07T12:37:13;25.00;49.70
610;DHT22;292;48.800;9.216;2023-05-07T12:39:46;24.80;50.80
610;DHT22;292;48.800;9.216;2023-05-07T12:42:15;24.60;52.10
610;DHT22;292;48.800;9.216;2023-05-07T12:44:45;24.40;51.80
610;DHT22;292;48.800;9.216;2023-05-07T12:47:13;24.10;53.60
610;DHT22;292;48.800;9.216;2023-05-07T12:49:43;23.80;54.50
610;DHT22;292;48.800;9.216;2023-05-07T12:52:11;23.60;55.80
610;DHT22;292;48.800;9.216;2023-05-07T12:54:38;23.30;56.90
610;DHT22;292;48.800;9.216;2023-05-07T12:57:07;23.10;57.80
610;DHT22;292;48.800;9.216;2023-05-07T12:59:36;22.80;58.50
610;DHT22;292;48.800;9.216;2023-05-07T13:02:04;22.40;59.80
610;DHT22;292;48.800;9.216;2023-05-07T13:04:33;22.00;61.50
610;DHT22;292;48.800;9.216;2023-05-07T13:07:06;21.70;61.80
610;DHT22;292;48.800;9.216;2023-05-07T13:09:36;21.40;61.20
610;DHT22;292;48.800;9.216;2023-05-07T13:12:05;21.20;60.50
610;DHT22;292;48.800;9.216;2023-05-07T13:14:33;21.10;59.40
610;DHT22;292;48.800;9.216;2023-05-07T13:17:02;21.00;59.70
610;DHT22;292;48.800;9.216;2023-05-07T13:19:30;21.00;59.80
610;DHT22;292;48.800;9.216;2023-05-07T13:22:01;20.90;61.10
610;DHT22;292;48.800;9.216;2023-05-07T13:24:33;20.70;61.80
610;DHT22;292;48.800;9.216;2023-05-07T13:27:02;20.50;62.50
610;DHT22;292;48.800;9.216;2023-05-07T13:29:32;20.40;62.80
610;DHT22;292;48.800;9.216;2023-05-07T13:31:59;20.20;63.40
610;DHT22;292;48.800;9.216;2023-05-07T13:34:28;20.00;64.60
610;DHT22;292;48.800;9.216;2023-05-07T13:36:55;19.90;65.00
610;DHT22;292;48.800;9.216;2023-05-07T13:39:24;19.70;65.60
610;DHT22;292;48.800;9.216;2023-05-07T13:41:53;19.60;65.70
610;DHT22;292;48.800;9.216;2023-05-07T13:44:21;19.60;66.20
610;DHT22;292;48.800;9.216;2023-05-07T13:46:49;19.50;65.60
610;DHT22;292;48.800;9.216;2023-05-07T13:49:16;19.50;65.30
610;DHT22;292;48.800;9.216;2023-05-07T13:51:44;19.50;64.30
610;DHT22;292;48.800;9.216;2023-05-07T13:54:11;19.50;64.00
610;DHT22;292;48.800;9.216;2023-05-07T13:56:39;19.50;64.30
610;DHT22;292;48.800;9.216;2023-05-07T13:59:08;19.50;65.10
610;DHT22;292;48.800;9.216;2023-05-07T14:01:37;19.50;67.00
610;DHT22;292;48.800;9.216;2023-05-07T14:04:04;19.50;67.00
610;DHT22;292;48.800;9.216;2023-05-07T14:06:35;19.50;67.20
610;DHT22;292;48.800;9.216;2023-05-07T14:09:04;19.50;67.70
610;DHT22;292;48.800;9.216;2023-05-07T14:11:33;19.50;68.50
610;DHT22;292;48.800;9.216;2023-05-07T14:14:00;19.40;69.30
610;DHT22;292;48.800;9.216;2023-05-07T14:16:29;19.20;69.00
610;DHT22;292;48.800;9.216;2023-05-07T14:18:56;19.10;68.70
610;DHT22;292;48.800;9.216;2023-05-07T14:21:24;19.00;69.50
610;DHT22;292;48.800;9.216;2023-05-07T14:23:51;18.90;70.50
610;DHT22;292;48.800;9.216;2023-05-07T14:26:18;18.70;71.50
610;DHT22;292;48.800;9.216;2023-05-07T14:28:46;18.70;72.40
610;DHT22;292;48.800;9.216;2023-05-07T14:31:16;18.60;72.90
610;DHT22;292;48.800;9.216;2023-05-07T14:33:52;18.60;73.50
610;DHT22;292;48.800;9.216;2023-05-07T14:36:19;18.60;73.80
610;DHT22;292;48.800;9.216;2023-05-07T14:38:50;18.60;74.40
610;DHT22;292;48.800;9.216;2023-05-07T14:41:18;18.60;74.80
610;DHT22;292;48.800;9.216;2023-05-07T14:43:47;18.70;74.80
610;DHT22;292;48.800;9.216;2023-05-07T14:46:19;18.70;75.00
610;DHT22;292;48.800;9.216;2023-05-07T14:48:49;18.70;75.00
610;DHT22;292;48.800;9.216;2023-05-07T14:51:21;18.70;75.20
610;DHT22;292;48.800;9.216;2023-05-07T14:53:50;18.70;75.50
610;DHT22;292;48.800;9.216;2023-05-07T14:56:19;18.70;75.70
610;DHT22;292;48.800;9.216;2023-05-07T14:58:47;18.70;75.40
610;DHT22;292;48.800;9.216;2023-05-07T15:01:17;18.60;75.20
610;DHT22;292;48.800;9.216;2023-05-07T15:03:45;18.60;75.50
610;DHT22;292;48.800;9.216;2023-05-07T15:06:12;18.60;75.80
610;DHT22;292;48.800;9.216;2023-05-07T15:08:41;18.60;76.10
610;DHT22;292;48.800;9.216;2023-05-07T15:11:09;18.60;76.20
610;DHT22;292;48.800;9.216;2023-05-07T15:13:41;18.60;77.00
610;DHT22;292;48.800;9.216;2023-05-07T15:16:10;18.70;77.30
610;DHT22;292;48.800;9.216;2023-05-07T15:18:38;18.70;77.10
610;DHT22;292;48.800;9.216;2023-05-07T15:21:05;18.70;77.00
610;DHT22;292;48.800;9.216;2023-05-07T15:23:33;18.70;77.40
610;DHT22;292;48.800;9.216;2023-05-07T15:26:02;18.70;78.10
610;DHT22;292;48.800;9.216;2023-05-07T15:28:29;18.80;78.40
610;DHT22;292;48.800;9.216;2023-05-07T15:30:57;18.80;78.70
610;DHT22;292;48.800;9.216;2023-05-07T15:33:26;18.80;79.00
610;DHT22;292;48.800;9.216;2023-05-07T15:35:54;18.90;79.10
610;DHT22;292;48.800;9.216;2023-05-07T15:38:25;18.90;79.30
610;DHT22;292;48.800;9.216;2023-05-07T15:40:52;18.90;79.30
610;DHT22;292;48.800;9.216;2023-05-07T15:43:21;19.00;79.00
610;DHT22;292;48.800;9.216;2023-05-07T15:45:50;19.00;78.70
610;DHT22;292;48.800;9.216;2023-05-07T15:48:18;19.00;78.30
610;DHT22;292;48.800;9.216;2023-05-07T15:50:46;19.00;78.10
610;DHT22;292;48.800;9.216;2023-05-07T15:53:13;19.00;78.10
610;DHT22;292;48.800;9.216;2023-05-07T15:55:42;19.00;78.10
610;DHT22;292;48.800;9.216;2023-05-07T15:58:10;19.10;78.00
610;DHT22;292;48.800;9.216;2023-05-07T16:00:39;19.10;78.10
610;DHT22;292;48.800;9.216;2023-05-07T16:03:08;19.10;78.00
610;DHT22;292;48.800;9.216;2023-05-07T16:05:37;19.20;78.00
610;DHT22;292;48.800;9.216;2023-05-07T16:08:05;19.20;78.00
610;DHT22;292;48.800;9.216;2023-05-07T16:10:33;19.30;78.10
610;DHT22;292;48.800;9.216;2023-05-07T16:13:01;19.30;78.10
610;DHT22;292;48.800;9.216;2023-05-07T16:15:29;19.30;78.10
610;DHT22;292;48.800;9.216;2023-05-07T16:17:59;19.30;77.80
610;DHT22;292;48.800;9.216;2023-05-07T16:20:27;19.30;77.70
610;DHT22;292;48.800;9.216;2023-05-07T16:22:58;19.40;77.70
610;DHT22;292;48.800;9.216;2023-05-07T16:25:27;19.40;77.70
610;DHT22;292;48.800;9.216;2023-05-07T16:27:56;19.40;77.50
610;DHT22;292;48.800;9.216;2023-05-07T16:30:24;19.40;77.50
610;DHT22;292;48.800;9.216;2023-05-07T16:32:51;19.50;77.40
610;DHT22;292;48.800;9.216;2023-05-07T16:35:22;19.40;77.40
610;DHT22;292;48.800;9.216;2023-05-07T16:37:49;19.50;77.50
610;DHT22;292;48.800;9.216;2023-05-07T16:40:16;19.40;77.70
610;DHT22;292;48.800;9.216;2023-05-07T16:42:46;19.50;77.80
610;DHT22;292;48.800;9.216;2023-05-07T16:45:13;19.40;78.00
610;DHT22;292;48.800;9.216;2023-05-07T16:47:41;19.50;78.10
610;DHT22;292;48.800;9.216;2023-05-07T16:50:09;19.40;78.30